Time;durP1;ratioP1;P1;durP2;ratioP2;P2;SDS_P1;SDS_P2;PMS_P1;PMS_P2;Temp;Humidity;BMP_temperature;BMP_pressure;BME280_temperature;BME280_humidity;BME280_pressure;Samples;Min_cycle;Max_cycle;Signal;HPM_P1;HPM_P2
2023/01/07 00:01:03;;;;;;;13.50;11.07;;;8.60;99.90;;;;;;5092618;28;20425;-66
2023/01/07 00:03:30;;;;;;;12.80;10.73;;;8.60;99.90;;;;;;5093783;28;20413;-65
2023/01/07 00:06:00;;;;;;;10.70;9.60;;;8.60;99.90;;;;;;5092799;28;20409;-65
2023/01/07 00:08:29;;;;;;;10.50;9.40;;;8.60;99.90;;;;;;5093369;28;20469;-65
2023/01/07 00:10:56;;;;;;;10.48;9.00;;;8.70;99.90;;;;;;5096438;28;20421;-67
2023/01/07 00:13:23;;;;;;;10.77;9.53;;;8.70;99.90;;;;;;5094387;28;20420;-65
2023/01/07 00:15:50;;;;;;;11.30;8.82;;;8.70;99.90;;;;;;5092044;28;20430;-65
2023/01/07 00:18:18;;;;;;;10.60;8.82;;;8.70;99.90;;;;;;5092930;28;20421;-65
2023/01/07 00:20:45;;;;;;;11.50;9.00;;;8.70;99.90;;;;;;5092846;28;20414;-65
2023/01/07 00:23:11;;;;;;;11.80;10.00;;;8.70;99.90;;;;;;5092281;28;20776;-64
2023/01/07 00:25:38;;;;;;;11.43;9.25;;;8.80;99.90;;;;;;5093344;28;20414;-65
2023/01/07 00:28:05;;;;;;;11.85;8.88;;;8.80;99.90;;;;;;5097200;28;20425;-65
2023/01/07 00:30:31;;;;;;;9.35;8.35;;;8.80;99.90;;;;;;5096575;28;20410;-65
2023/01/07 00:33:04;;;;;;;9.00;8.10;;;8.90;99.90;;;;;;5097180;28;20416;-66
2023/01/07 00:35:36;;;;;;;10.50;8.50;;;8.90;99.90;;;;;;5096888;28;20425;-65
2023/01/07 00:38:04;;;;;;;9.48;8.35;;;8.90;99.90;;;;;;5096976;28;20414;-64
2023/01/07 00:40:32;;;;;;;10.45;8.85;;;8.90;99.90;;;;;;5096314;28;20410;-64
2023/01/07 00:43:01;;;;;;;9.07;8.18;;;8.90;99.90;;;;;;5096251;28;20409;-66
2023/01/07 00:45:29;;;;;;;10.35;7.80;;;9.00;99.90;;;;;;5096961;28;20412;-65
2023/01/07 00:47:57;;;;;;;8.97;8.07;;;9.00;99.90;;;;;;5096339;28;20413;-64
2023/01/07 00:50:26;;;;;;;10.10;8.48;;;9.00;99.90;;;;;;5095922;28;20418;-64
2023/01/07 00:52:55;;;;;;;8.65;7.72;;;9.00;99.90;;;;;;5095888;28;20781;-64
2023/01/07 00:55:22;;;;;;;9.77;8.57;;;9.00;99.90;;;;;;5095528;28;20910;-64
2023/01/07 00:57:49;;;;;;;8.75;7.85;;;9.00;99.90;;;;;;5095632;28;20416;-64
2023/01/07 01:00:17;;;;;;;8.85;7.63;;;9.00;99.90;;;;;;5095666;28;20920;-64
2023/01/07 01:02:45;;;;;;;9.13;7.65;;;9.10;99.90;;;;;;5095452;28;20889;-65
2023/01/07 01:05:12;;;;;;;8.27;7.45;;;9.10;99.90;;;;;;5095662;28;20417;-64
2023/01/07 01:07:40;;;;;;;7.97;7.15;;;9.10;99.90;;;;;;5095162;28;20421;-64
2023/01/07 01:10:11;;;;;;;7.40;6.68;;;9.10;99.90;;;;;;5095605;28;20418;-64
2023/01/07 01:12:38;;;;;;;6.70;6.00;;;9.20;99.90;;;;;;5095373;28;20414;-64
2023/01/07 01:15:08;;;;;;;6.83;6.13;;;9.20;99.90;;;;;;5095466;28;20485;-64
2023/01/07 01:17:34;;;;;;;7.40;6.70;;;9.20;99.90;;;;;;5095356;28;20413;-65
2023/01/07 01:20:01;;;;;;;6.57;5.70;;;9.20;99.90;;;;;;5095201;28;20479;-65
2023/01/07 01:22:28;;;;;;;7.45;6.10;;;9.20;99.90;;;;;;5095691;28;20451;-65
2023/01/07 01:24:55;;;;;;;6.10;5.45;;;9.30;99.90;;;;;;5096008;28;20422;-64
2023/01/07 01:27:23;;;;;;;5.85;4.65;;;9.30;99.90;;;;;;5094702;28;20420;-65
2023/01/07 01:29:50;;;;;;;4.30;3.90;;;9.30;99.90;;;;;;5095162;28;20773;-65
2023/01/07 01:32:16;;;;;;;3.90;3.50;;;9.30;99.90;;;;;;5095119;28;20402;-65
2023/01/07 01:34:43;;;;;;;3.80;3.50;;;9.30;99.90;;;;;;5095062;28;20428;-64
2023/01/07 01:37:10;;;;;;;3.50;3.20;;;9.30;99.90;;;;;;5094585;28;20432;-64
2023/01/07 01:39:36;;;;;;;3.13;2.83;;;9.30;99.90;;;;;;5095033;28;20402;-65
2023/01/07 01:42:03;;;;;;;3.08;2.80;;;9.30;99.90;;;;;;5095467;28;20413;-65
2023/01/07 01:44:38;;;;;;;3.40;2.70;;;9.30;99.90;;;;;;5095540;28;20414;-65
2023/01/07 01:47:13;;;;;;;3.20;2.90;;;9.30;99.90;;;;;;5095452;28;20413;-65
2023/01/07 01:49:44;;;;;;;4.35;2.90;;;9.30;99.90;;;;;;5094774;28;20417;-65
2023/01/07 01:52:15;;;;;;;3.40;3.10;;;9.20;99.90;;;;;;5094467;28;20953;-64
2023/01/07 01:54:45;;;;;;;3.53;3.22;;;9.10;99.90;;;;;;5095278;28;20421;-65
2023/01/07 01:57:12;;;;;;;3.92;3.53;;;9.10;99.90;;;;;;5094515;28;20421;-64
2023/01/07 01:59:43;;;;;;;4.05;3.65;;;9.10;99.90;;;;;;5094597;28;20894;-64
2023/01/07 02:02:11;;;;;;;3.90;3.50;;;9.10;99.90;;;;;;5094781;28;20420;-65
2023/01/07 02:04:38;;;;;;;4.32;3.72;;;9.10;99.90;;;;;;5094580;28;20414;-65
2023/01/07 02:07:09;;;;;;;4.45;4.05;;;9.10;99.90;;;;;;5094661;28;20444;-64
2023/01/07 02:09:35;;;;;;;4.70;4.30;;;9.10;99.90;;;;;;5094625;28;20414;-64
2023/01/07 02:12:14;;;;;;;4.03;3.65;;;9.10;99.90;;;;;;5094440;28;20406;-65
2023/01/07 02:15:01;;;;;;;4.80;4.40;;;9.10;99.90;;;;;;5094427;28;20428;-64
2023/01/07 02:17:38;;;;;;;4.63;4.20;;;9.20;99.90;;;;;;5094288;28;20426;-65
2023/01/07 02:20:22;;;;;;;5.30;4.80;;;9.20;99.90;;;;;;5094368;28;20409;-65
2023/01/07 02:23:24;;;;;;;4.63;4.23;;;9.30;99.90;;;;;;5103948;28;20494;-65
2023/01/07 02:26:25;;;;;;;4.88;4.40;;;9.30;99.90;;;;;;5076691;28;20457;-64
2023/01/07 02:29:20;;;;;;;4.95;4.55;;;9.30;99.90;;;;;;5087065;28;20410;-64
2023/01/07 02:32:09;;;;;;;5.32;4.82;;;9.30;99.90;;;;;;5094165;28;20428;-65
2023/01/07 02:34:42;;;;;;;5.30;4.80;;;9.40;99.90;;;;;;5093899;28;20417;-64
2023/01/07 02:37:14;;;;;;;5.43;4.78;;;9.40;99.90;;;;;;5093673;28;20430;-65
2023/01/07 02:39:54;;;;;;;4.63;4.13;;;9.40;99.90;;;;;;5094081;28;20403;-65
2023/01/07 02:42:27;;;;;;;5.28;4.78;;;9.40;99.90;;;;;;5093648;28;20881;-66
2023/01/07 02:45:02;;;;;;;5.07;4.50;;;9.40;99.90;;;;;;5093814;28;20409;-65
2023/01/07 02:47:36;;;;;;;5.05;4.55;;;9.40;99.90;;;;;;5093426;28;20450;-65
2023/01/07 02:50:04;;;;;;;5.45;4.95;;;9.40;99.90;;;;;;5093128;28;20440;-65
2023/01/07 02:52:33;;;;;;;5.00;4.50;;;9.40;99.90;;;;;;5093642;28;20417;-65
2023/01/07 02:55:03;;;;;;;4.80;4.40;;;9.40;99.90;;;;;;5095635;28;20436;-65
2023/01/07 02:57:55;;;;;;;5.35;4.70;;;9.30;99.90;;;;;;5098306;28;20496;-66
2023/01/07 03:00:33;;;;;;;4.70;4.30;;;9.30;99.90;;;;;;5090260;28;20417;-65
2023/01/07 03:03:20;;;;;;;5.47;4.97;;;9.30;99.90;;;;;;5101592;28;20454;-65
2023/01/07 03:06:00;;;;;;;5.28;4.78;;;9.20;99.90;;;;;;5102456;28;20886;-66
2023/01/07 03:08:52;;;;;;;4.80;4.40;;;9.20;99.90;;;;;;5101617;28;20424;-65
2023/01/07 03:11:21;;;;;;;4.90;4.40;;;9.20;99.90;;;;;;5105555;28;20418;-65
2023/01/07 03:13:50;;;;;;;5.13;4.63;;;9.10;99.90;;;;;;5103139;28;20417;-65
2023/01/07 03:16:23;;;;;;;5.35;4.85;;;9.00;99.90;;;;;;5101566;28;20425;-65
2023/01/07 03:18:59;;;;;;;5.00;4.50;;;9.00;99.90;;;;;;5098389;28;20413;-64
2023/01/07 03:21:27;;;;;;;5.53;5.03;;;9.00;99.90;;;;;;5097688;28;20450;-64
2023/01/07 03:23:56;;;;;;;4.75;4.32;;;9.00;99.90;;;;;;5098255;28;20413;-65
2023/01/07 03:26:30;;;;;;;5.10;4.60;;;9.00;99.90;;;;;;5098243;28;20410;-65
2023/01/07 03:29:00;;;;;;;5.10;4.60;;;9.10;99.90;;;;;;5098483;28;20427;-65
2023/01/07 03:31:27;;;;;;;4.60;4.20;;;9.10;99.90;;;;;;5099057;28;20413;-64
2023/01/07 03:34:01;;;;;;;4.63;4.22;;;9.10;99.90;;;;;;5098804;28;20413;-64
2023/01/07 03:36:32;;;;;;;5.28;4.28;;;9.20;99.90;;;;;;5096810;28;20461;-64
2023/01/07 03:39:00;;;;;;;4.82;4.43;;;9.20;99.90;;;;;;5094847;28;20417;-64
2023/01/07 03:44:11;;;;;;;5.18;4.68;;;9.30;99.90;;;;;;5093422;28;20392;-63
2023/01/07 03:46:38;;;;;;;5.38;4.88;;;9.30;99.90;;;;;;5092345;28;20826;-65
2023/01/07 03:49:06;;;;;;;5.35;4.85;;;9.40;99.90;;;;;;5093077;28;20417;-64
2023/01/07 03:51:33;;;;;;;5.28;4.78;;;9.40;99.90;;;;;;5093246;28;20513;-65
2023/01/07 03:54:00;;;;;;;5.00;4.50;;;9.40;99.90;;;;;;5093508;28;20416;-65
2023/01/07 03:56:27;;;;;;;4.90;4.40;;;9.40;99.90;;;;;;5094391;28;20426;-65
2023/01/07 03:58:53;;;;;;;4.63;4.22;;;9.50;99.90;;;;;;5094207;28;20437;-65
2023/01/07 04:01:20;;;;;;;4.60;4.20;;;9.50;99.90;;;;;;5093278;28;20414;-65
2023/01/07 04:03:47;;;;;;;4.30;3.90;;;9.50;99.90;;;;;;5093149;28;20425;-65
2023/01/07 04:06:15;;;;;;;4.40;4.00;;;9.60;99.90;;;;;;5093246;28;20413;-65
2023/01/07 04:10:53;;;;;;;4.05;3.60;;;9.60;99.90;;;;;;5096670;27;1926847;-66
2023/01/07 04:13:20;;;;;;;4.28;3.80;;;9.60;99.90;;;;;;5141362;28;20404;-65
2023/01/07 04:15:46;;;;;;;4.60;3.80;;;9.70;99.90;;;;;;5136721;28;20418;-65
2023/01/07 04:18:13;;;;;;;4.60;4.07;;;9.70;99.90;;;;;;5114115;28;20431;-65
2023/01/07 04:20:40;;;;;;;4.37;3.70;;;9.70;99.90;;;;;;5114309;28;20409;-65
2023/01/07 04:23:07;;;;;;;4.00;3.60;;;9.70;99.90;;;;;;5116765;28;20413;-66
2023/01/07 04:25:33;;;;;;;4.10;3.60;;;9.70;99.90;;;;;;5127013;28;20405;-65
2023/01/07 04:28:01;;;;;;;4.90;3.50;;;9.70;99.90;;;;;;5128975;28;20416;-66
2023/01/07 04:30:28;;;;;;;4.90;3.90;;;9.70;99.90;;;;;;5122554;28;20423;-66
2023/01/07 04:32:55;;;;;;;3.90;3.50;;;9.70;99.90;;;;;;5113291;28;20780;-65
2023/01/07 04:35:21;;;;;;;3.70;3.22;;;9.70;99.90;;;;;;5113299;28;20412;-65
2023/01/07 04:37:48;;;;;;;3.40;3.10;;;9.80;99.90;;;;;;5111555;28;20409;-64
2023/01/07 04:40:15;;;;;;;3.90;3.08;;;9.70;99.90;;;;;;5111733;28;20416;-65
2023/01/07 04:42:42;;;;;;;3.00;2.70;;;9.80;99.90;;;;;;5110504;28;20413;-65
2023/01/07 04:45:11;;;;;;;3.20;2.70;;;9.80;99.90;;;;;;5111172;28;20413;-65
2023/01/07 04:47:37;;;;;;;2.50;2.30;;;9.80;99.90;;;;;;5110505;28;20413;-66
2023/01/07 04:50:05;;;;;;;3.50;2.90;;;9.80;99.90;;;;;;5111323;28;20421;-64
2023/01/07 04:52:31;;;;;;;2.70;2.50;;;9.70;99.90;;;;;;5110186;28;20413;-66
2023/01/07 04:54:58;;;;;;;3.22;2.92;;;9.70;99.90;;;;;;5110342;28;20409;-65
2023/01/07 04:57:25;;;;;;;2.83;2.50;;;9.70;99.90;;;;;;5109516;28;20405;-65
2023/01/07 04:59:52;;;;;;;2.55;2.35;;;9.70;99.90;;;;;;5110302;28;20405;-65
2023/01/07 05:02:20;;;;;;;2.40;2.20;;;9.70;99.90;;;;;;5109505;28;20405;-66
2023/01/07 05:04:47;;;;;;;3.08;2.10;;;9.70;99.90;;;;;;5109703;28;20413;-65
2023/01/07 05:07:13;;;;;;;2.60;2.20;;;9.70;99.90;;;;;;5109611;28;20473;-65
2023/01/07 05:09:40;;;;;;;2.53;2.33;;;9.70;99.90;;;;;;5110326;28;20428;-65
2023/01/07 05:12:07;;;;;;;2.08;1.75;;;9.70;99.90;;;;;;5110638;28;20417;-65
2023/01/07 05:14:34;;;;;;;2.22;2.03;;;9.80;99.90;;;;;;5109654;28;20409;-65
2023/01/07 05:17:00;;;;;;;2.70;2.40;;;9.70;99.90;;;;;;5108846;28;20409;-65
2023/01/07 05:19:28;;;;;;;2.28;2.08;;;9.80;99.90;;;;;;5109326;28;20402;-64
2023/01/07 05:21:55;;;;;;;2.53;2.20;;;9.80;99.90;;;;;;5097493;28;20417;-63
2023/01/07 05:24:22;;;;;;;2.17;1.98;;;9.70;99.90;;;;;;5095706;28;20492;-66
2023/01/07 05:26:49;;;;;;;2.28;2.08;;;9.70;99.90;;;;;;5095262;28;20405;-66
2023/01/07 05:29:15;;;;;;;1.90;1.70;;;9.70;99.90;;;;;;5095757;28;20436;-65
2023/01/07 05:31:42;;;;;;;2.40;2.20;;;9.70;99.90;;;;;;5096098;28;20417;-66
2023/01/07 05:34:09;;;;;;;2.25;2.05;;;9.70;99.90;;;;;;5095576;28;20436;-65
2023/01/07 05:36:37;;;;;;;2.45;1.98;;;9.60;99.90;;;;;;5095245;28;20431;-64
2023/01/07 05:39:04;;;;;;;2.15;1.90;;;9.60;99.90;;;;;;5095629;28;20410;-65
2023/01/07 05:41:30;;;;;;;2.00;1.80;;;9.60;99.90;;;;;;5095137;28;20766;-65
2023/01/07 05:43:57;;;;;;;2.55;1.98;;;9.60;99.90;;;;;;5095006;28;20405;-65
2023/01/07 05:46:24;;;;;;;2.30;2.10;;;9.60;99.90;;;;;;5095250;28;20421;-65
2023/01/07 05:48:52;;;;;;;2.00;1.80;;;9.60;99.90;;;;;;5101873;28;20421;-65
2023/01/07 05:51:19;;;;;;;2.40;2.20;;;9.60;99.90;;;;;;5112252;28;20410;-65
2023/01/07 05:53:47;;;;;;;2.97;2.10;;;9.60;99.90;;;;;;5107657;28;20426;-66
2023/01/07 05:56:14;;;;;;;2.53;2.20;;;9.50;99.90;;;;;;5098939;28;20440;-64
2023/01/07 05:58:41;;;;;;;2.85;2.33;;;9.40;99.90;;;;;;5095389;28;20414;-64
2023/01/07 06:01:07;;;;;;;2.80;2.23;;;9.50;99.90;;;;;;5094510;28;20410;-66
2023/01/07 06:03:34;;;;;;;2.93;2.43;;;9.40;99.90;;;;;;5094475;28;20769;-65
2023/01/07 06:06:05;;;;;;;2.60;2.40;;;9.40;99.90;;;;;;5094475;28;20413;-64
2023/01/07 06:08:32;;;;;;;3.10;2.70;;;9.40;99.90;;;;;;5094475;28;20420;-65
2023/01/07 06:11:00;;;;;;;3.10;2.80;;;9.40;99.90;;;;;;5093930;28;20422;-64
2023/01/07 06:13:27;;;;;;;3.20;2.90;;;9.30;99.90;;;;;;5094117;28;20421;-65
2023/01/07 06:15:54;;;;;;;3.40;3.10;;;9.30;99.90;;;;;;5089805;28;21172;-65
2023/01/07 06:18:21;;;;;;;3.67;3.08;;;9.20;99.90;;;;;;5090061;28;20437;-65
2023/01/07 06:20:47;;;;;;;3.53;3.23;;;9.10;99.90;;;;;;5091942;28;20426;-65
2023/01/07 06:23:14;;;;;;;3.33;3.03;;;9.10;99.90;;;;;;5093962;28;20421;-65
2023/01/07 06:25:41;;;;;;;4.20;3.10;;;9.00;99.90;;;;;;5088028;28;20792;-64
2023/01/07 06:28:09;;;;;;;3.38;3.08;;;9.00;99.90;;;;;;5078262;28;20432;-64
2023/01/07 06:30:35;;;;;;;3.05;2.85;;;8.90;99.90;;;;;;5088808;28;20426;-64
2023/01/07 06:33:04;;;;;;;3.30;2.92;;;8.90;99.90;;;;;;5093439;28;20409;-64
2023/01/07 06:35:31;;;;;;;3.20;2.90;;;8.90;99.90;;;;;;5091388;28;20439;-64
2023/01/07 06:37:59;;;;;;;3.22;2.92;;;8.90;99.90;;;;;;5093749;28;20417;-64
2023/01/07 06:40:26;;;;;;;3.00;2.75;;;8.90;99.90;;;;;;5091150;28;20516;-64
2023/01/07 06:42:53;;;;;;;3.58;3.03;;;8.80;99.90;;;;;;5093438;28;20910;-65
2023/01/07 06:45:22;;;;;;;3.30;3.00;;;8.80;99.90;;;;;;5089679;28;20432;-63
2023/01/07 06:47:48;;;;;;;5.30;3.72;;;8.80;99.90;;;;;;5093597;28;20418;-65
2023/01/07 06:50:16;;;;;;;3.70;3.20;;;8.80;99.90;;;;;;5094082;28;20418;-64
2023/01/07 06:52:43;;;;;;;3.30;3.00;;;8.80;99.90;;;;;;5095691;28;20425;-65
2023/01/07 06:55:10;;;;;;;3.20;2.90;;;8.80;99.90;;;;;;5095272;28;20936;-65
2023/01/07 06:57:37;;;;;;;3.30;3.00;;;8.80;99.90;;;;;;5101300;28;20418;-64
2023/01/07 07:00:04;;;;;;;4.75;4.35;;;8.80;99.90;;;;;;5101227;28;20429;-65
2023/01/07 07:02:32;;;;;;;3.63;3.05;;;8.80;99.90;;;;;;5101554;28;20417;-65
2023/01/07 07:04:59;;;;;;;3.40;3.10;;;8.80;99.90;;;;;;5099910;28;20430;-65
2023/01/07 07:07:26;;;;;;;3.13;2.80;;;8.80;99.90;;;;;;5102273;28;20405;-64
2023/01/07 07:09:53;;;;;;;3.20;2.90;;;8.80;99.90;;;;;;5102791;28;20441;-65
2023/01/07 07:12:19;;;;;;;3.35;3.05;;;8.80;99.90;;;;;;5095876;28;20913;-64
2023/01/07 07:14:46;;;;;;;3.40;3.10;;;8.90;99.90;;;;;;5094724;28;20421;-64
2023/01/07 07:17:13;;;;;;;3.22;2.92;;;8.80;99.90;;;;;;5094302;28;20774;-65
2023/01/07 07:19:41;;;;;;;2.90;2.60;;;8.80;99.90;;;;;;5094493;28;20459;-64
2023/01/07 07:22:07;;;;;;;3.20;2.90;;;8.80;99.90;;;;;;5094913;28;20410;-62
2023/01/07 07:24:34;;;;;;;3.90;3.40;;;8.80;99.90;;;;;;5094876;28;20514;-65
2023/01/07 07:27:01;;;;;;;3.88;3.35;;;8.70;99.90;;;;;;5095270;28;20924;-66
2023/01/07 07:29:27;;;;;;;3.50;3.20;;;8.70;99.90;;;;;;5094652;28;20429;-64
2023/01/07 07:31:54;;;;;;;3.77;3.40;;;8.70;99.90;;;;;;5097308;28;20501;-63
2023/01/07 07:34:21;;;;;;;4.00;3.60;;;8.70;99.90;;;;;;5096728;28;20414;-67
2023/01/07 07:36:49;;;;;;;3.90;3.50;;;8.70;99.90;;;;;;5096672;28;20410;-64
2023/01/07 07:39:16;;;;;;;4.15;3.33;;;8.70;99.90;;;;;;5095772;28;20410;-66
2023/01/07 07:41:42;;;;;;;3.90;3.50;;;8.70;99.90;;;;;;5096815;28;20409;-65
2023/01/07 07:44:09;;;;;;;4.40;3.63;;;8.60;99.90;;;;;;5096656;28;20518;-67
2023/01/07 07:46:36;;;;;;;4.45;3.90;;;8.60;99.90;;;;;;5100116;28;20413;-65
2023/01/07 07:49:04;;;;;;;5.32;3.47;;;8.60;99.90;;;;;;5096551;28;20414;-66
2023/01/07 07:51:31;;;;;;;3.92;3.50;;;8.60;99.90;;;;;;5095989;28;20457;-66
2023/01/07 07:53:59;;;;;;;3.90;3.40;;;8.60;99.90;;;;;;5097345;28;20433;-63
2023/01/07 07:56:26;;;;;;;5.80;4.10;;;8.70;99.90;;;;;;5095345;28;20417;-63
2023/01/07 07:58:52;;;;;;;4.10;3.70;;;8.70;99.90;;;;;;5102216;28;20518;-65
2023/01/07 08:01:19;;;;;;;4.82;3.72;;;8.70;99.90;;;;;;5100437;28;20425;-64
2023/01/07 08:03:46;;;;;;;4.70;4.20;;;8.70;99.90;;;;;;5094893;28;20457;-65
2023/01/07 08:06:13;;;;;;;5.20;4.70;;;8.70;99.90;;;;;;5095122;28;20417;-65
2023/01/07 08:08:40;;;;;;;4.80;3.95;;;8.70;99.90;;;;;;5094231;28;20409;-64
2023/01/07 08:11:08;;;;;;;4.60;4.03;;;8.70;99.90;;;;;;5093848;28;20494;-65
2023/01/07 08:13:35;;;;;;;5.13;3.97;;;8.60;99.90;;;;;;5094687;28;20417;-66
2023/01/07 08:16:01;;;;;;;4.10;3.70;;;8.70;99.90;;;;;;5092711;28;20429;-65
2023/01/07 08:18:28;;;;;;;5.07;4.38;;;8.60;99.90;;;;;;5097824;28;20406;-69
2023/01/07 08:20:55;;;;;;;5.10;4.07;;;8.60;99.90;;;;;;5093461;28;20408;-64
2023/01/07 08:23:22;;;;;;;7.63;4.57;;;8.60;99.90;;;;;;5092942;28;20778;-65
2023/01/07 08:25:48;;;;;;;5.60;4.55;;;8.60;99.90;;;;;;5094030;28;20420;-64
2023/01/07 08:28:16;;;;;;;5.72;4.70;;;8.60;99.90;;;;;;5094148;28;20762;-65
2023/01/07 08:30:43;;;;;;;4.90;4.50;;;8.60;99.90;;;;;;5093573;28;20429;-64
2023/01/07 08:33:11;;;;;;;4.82;4.00;;;8.70;99.90;;;;;;5093506;28;20417;-64
2023/01/07 08:35:37;;;;;;;4.85;4.43;;;8.70;99.90;;;;;;5092007;28;20429;-65
2023/01/07 08:38:06;;;;;;;6.22;4.50;;;8.70;99.90;;;;;;5093535;28;20809;-65
2023/01/07 08:40:33;;;;;;;5.88;4.70;;;8.70;99.90;;;;;;5093863;28;20430;-66
2023/01/07 08:43:01;;;;;;;4.75;4.30;;;8.80;99.90;;;;;;5095984;28;20414;-64
2023/01/07 08:45:29;;;;;;;4.80;4.40;;;8.80;99.90;;;;;;5100866;28;20421;-65
2023/01/07 08:47:57;;;;;;;4.95;4.20;;;8.90;99.90;;;;;;5100510;28;20462;-65
2023/01/07 08:50:24;;;;;;;5.32;4.40;;;8.90;99.90;;;;;;5102459;28;20425;-67
2023/01/07 08:52:51;;;;;;;4.88;4.43;;;8.90;99.90;;;;;;5096892;28;20436;-67
2023/01/07 08:55:18;;;;;;;4.80;4.30;;;9.00;99.90;;;;;;5096099;28;20413;-66
2023/01/07 08:57:46;;;;;;;5.10;4.60;;;9.00;99.90;;;;;;5100557;28;20465;-67
2023/01/07 09:00:14;;;;;;;4.43;4.03;;;9.10;99.90;;;;;;5099436;28;20417;-69
2023/01/07 09:02:42;;;;;;;5.15;4.50;;;9.20;99.90;;;;;;5098759;28;20413;-70
2023/01/07 09:05:10;;;;;;;6.32;4.10;;;9.30;99.90;;;;;;5096526;28;20968;-65
2023/01/07 09:07:37;;;;;;;4.82;4.18;;;9.40;99.90;;;;;;5097692;28;20496;-65
2023/01/07 09:10:04;;;;;;;4.10;3.70;;;9.50;99.90;;;;;;5097800;28;20429;-65
2023/01/07 09:12:31;;;;;;;4.03;3.63;;;9.60;99.90;;;;;;5102742;28;20422;-63
2023/01/07 09:14:58;;;;;;;4.30;3.80;;;9.70;99.90;;;;;;5102182;28;20406;-63
2023/01/07 09:17:25;;;;;;;3.50;3.20;;;9.80;99.90;;;;;;5101827;28;20414;-64
2023/01/07 09:19:53;;;;;;;5.20;3.27;;;9.80;99.90;;;;;;5102261;28;20465;-64
2023/01/07 09:22:19;;;;;;;3.50;3.20;;;9.90;99.90;;;;;;5100276;28;20421;-63
2023/01/07 09:24:46;;;;;;;5.20;3.47;;;10.00;99.90;;;;;;5098129;28;20418;-65
2023/01/07 09:27:15;;;;;;;3.80;3.40;;;10.00;99.90;;;;;;5096891;28;20430;-66
2023/01/07 09:29:42;;;;;;;4.15;3.20;;;10.10;99.90;;;;;;5095447;28;20475;-65
2023/01/07 09:32:09;;;;;;;4.45;3.10;;;10.10;99.90;;;;;;5095496;28;20453;-65
2023/01/07 09:34:37;;;;;;;4.82;3.47;;;10.20;99.90;;;;;;5094390;28;20462;-65
2023/01/07 09:37:06;;;;;;;3.78;3.38;;;10.20;99.90;;;;;;5094928;28;20413;-65
2023/01/07 09:39:33;;;;;;;4.00;3.60;;;10.20;99.90;;;;;;5094328;28;20452;-65
2023/01/07 09:42:04;;;;;;;4.40;3.00;;;10.30;99.90;;;;;;5095877;28;20408;-65
2023/01/07 09:44:45;;;;;;;3.20;2.90;;;10.30;99.90;;;;;;5095603;28;20414;-64
2023/01/07 09:47:16;;;;;;;2.90;2.60;;;10.30;99.90;;;;;;5094522;28;20460;-66
2023/01/07 09:49:45;;;;;;;3.80;3.00;;;10.40;99.90;;;;;;5108253;28;20421;-66
2023/01/07 09:52:21;;;;;;;3.80;3.00;;;10.40;99.90;;;;;;5103205;28;20428;-65
2023/01/07 09:54:53;;;;;;;5.20;3.30;;;10.40;99.90;;;;;;5096660;28;20414;-66
2023/01/07 09:57:20;;;;;;;3.67;3.33;;;10.40;99.90;;;;;;5095317;28;20416;-65
2023/01/07 09:59:46;;;;;;;3.20;2.70;;;10.50;99.90;;;;;;5094107;28;20459;-63
2023/01/07 10:02:30;;;;;;;3.53;2.80;;;10.50;99.90;;;;;;5095463;28;20406;-66
2023/01/07 10:05:08;;;;;;;4.05;3.10;;;10.50;99.90;;;;;;5094138;28;20433;-65
2023/01/07 10:07:41;;;;;;;3.05;2.75;;;10.50;99.90;;;;;;5094570;28;20414;-67
2023/01/07 10:10:17;;;;;;;3.50;2.70;;;10.60;99.90;;;;;;5094685;28;20418;-69
2023/01/07 10:12:52;;;;;;;3.50;3.00;;;10.60;99.90;;;;;;5090691;28;20429;-63
2023/01/07 10:15:53;;;;;;;2.38;2.17;;;10.60;99.90;;;;;;5091959;28;20421;-67
2023/01/07 10:18:32;;;;;;;2.75;2.53;;;10.70;99.90;;;;;;5092448;28;20471;-67
2023/01/07 10:21:07;;;;;;;2.40;2.20;;;10.80;99.90;;;;;;5092034;28;20852;-67
2023/01/07 10:23:39;;;;;;;2.30;2.10;;;10.90;99.90;;;;;;5089874;22;20435;-69
2023/01/07 10:26:13;;;;;;;3.47;2.42;;;11.00;99.90;;;;;;5034741;28;20410;-68
2023/01/07 10:28:44;;;;;;;2.40;2.20;;;11.00;99.90;;;;;;5036078;28;20791;-68
2023/01/07 10:31:17;;;;;;;2.30;2.10;;;11.10;99.90;;;;;;5037327;28;20435;-67
2023/01/07 10:33:46;;;;;;;2.20;2.00;;;11.20;99.90;;;;;;5046537;28;20421;-67
2023/01/07 10:36:21;;;;;;;3.30;2.20;;;11.20;99.90;;;;;;5059503;28;20417;-66
2023/01/07 10:38:58;;;;;;;2.22;2.03;;;11.30;99.90;;;;;;5061132;28;20417;-66
2023/01/07 10:41:32;;;;;;;2.17;1.80;;;11.30;99.90;;;;;;5059323;28;20498;-66
2023/01/07 10:44:16;;;;;;;2.38;1.80;;;11.40;99.90;;;;;;5055950;28;20421;-67
2023/01/07 10:46:54;;;;;;;2.30;1.80;;;11.50;99.90;;;;;;5056223;28;20513;-67
2023/01/07 10:49:51;;;;;;;3.03;2.10;;;11.50;99.90;;;;;;5055013;28;20424;-67
2023/01/07 10:52:27;;;;;;;2.30;2.00;;;11.50;99.90;;;;;;5055383;28;20456;-66
2023/01/07 10:55:18;;;;;;;2.00;1.75;;;11.60;99.90;;;;;;5056697;28;20479;-65
2023/01/07 10:57:47;;;;;;;2.05;1.75;;;11.70;99.90;;;;;;5054176;28;20781;-67
2023/01/07 11:00:16;;;;;;;2.10;1.80;;;11.70;99.90;;;;;;5054054;28;20414;-69
2023/01/07 11:02:44;;;;;;;2.65;1.80;;;11.70;99.90;;;;;;5054813;28;20424;-69
2023/01/07 11:05:12;;;;;;;2.22;1.70;;;11.80;99.90;;;;;;5053736;28;20413;-69
2023/01/07 11:07:44;;;;;;;3.05;2.00;;;11.80;99.90;;;;;;5053746;28;20420;-68
2023/01/07 11:10:16;;;;;;;2.60;1.55;;;11.80;99.90;;;;;;5054052;28;20417;-69
2023/01/07 11:12:47;;;;;;;2.93;1.80;;;11.80;99.90;;;;;;5054365;28;20544;-69
2023/01/07 11:15:18;;;;;;;2.30;1.75;;;11.80;99.90;;;;;;5055024;28;20488;-70
2023/01/07 11:17:50;;;;;;;2.60;1.98;;;11.80;99.90;;;;;;5055379;28;20412;-68
2023/01/07 11:20:42;;;;;;;1.90;1.55;;;11.80;99.90;;;;;;5053859;28;20409;-70
2023/01/07 11:23:33;;;;;;;1.58;1.40;;;11.80;99.90;;;;;;5053848;28;20417;-67
2023/01/07 11:26:11;;;;;;;2.22;1.20;;;11.90;99.90;;;;;;5054123;28;20413;-67
2023/01/07 11:28:43;;;;;;;2.30;1.30;;;11.90;99.90;;;;;;5054158;28;20789;-66
2023/01/07 11:31:10;;;;;;;1.60;1.30;;;11.90;99.90;;;;;;5054040;28;20429;-66
2023/01/07 11:33:40;;;;;;;1.90;1.70;;;12.00;99.90;;;;;;5053918;28;20409;-66
2023/01/07 11:36:08;;;;;;;2.53;2.00;;;12.00;99.90;;;;;;5053965;28;20417;-66
2023/01/07 11:38:37;;;;;;;1.73;1.55;;;12.00;99.90;;;;;;5053324;28;20401;-65
2023/01/07 11:41:06;;;;;;;2.13;1.40;;;12.10;99.90;;;;;;5053803;28;20413;-66
2023/01/07 11:43:37;;;;;;;2.20;1.50;;;12.20;99.90;;;;;;5053700;28;20425;-65
2023/01/07 11:46:11;;;;;;;2.30;1.40;;;12.30;99.90;;;;;;5053971;28;20463;-65
2023/01/07 11:48:41;;;;;;;1.25;0.90;;;12.40;99.90;;;;;;5053950;28;20441;-67
2023/01/07 11:51:10;;;;;;;3.50;0.95;;;12.60;99.90;;;;;;5053709;28;20432;-64
2023/01/07 11:53:39;;;;;;;1.50;1.10;;;12.60;99.90;;;;;;5053170;28;20509;-68
2023/01/07 11:56:08;;;;;;;1.15;0.90;;;12.70;99.90;;;;;;5053400;28;20417;-65
2023/01/07 11:58:37;;;;;;;1.30;1.15;;;12.70;99.90;;;;;;5052739;28;20433;-65
2023/01/07 12:01:16;;;;;;;2.20;1.10;;;12.60;99.90;;;;;;5052843;28;20424;-67
2023/01/07 12:03:45;;;;;;;1.63;1.25;;;12.50;99.90;;;;;;5053440;28;20770;-66
2023/01/07 12:06:19;;;;;;;1.50;1.00;;;12.50;99.90;;;;;;5053614;28;20784;-67
2023/01/07 12:09:01;;;;;;;1.20;0.90;;;12.40;99.90;;;;;;5052903;28;20424;-65
2023/01/07 12:11:32;;;;;;;1.60;1.10;;;12.40;99.90;;;;;;5053558;28;20425;-66
2023/01/07 12:14:07;;;;;;;1.10;0.82;;;12.40;99.90;;;;;;5054207;28;20471;-66
2023/01/07 12:16:35;;;;;;;1.60;1.10;;;12.40;99.90;;;;;;5054850;28;20452;-67
2023/01/07 12:19:20;;;;;;;3.00;1.80;;;12.40;99.90;;;;;;5055192;28;20421;-67
2023/01/07 12:22:00;;;;;;;2.25;1.75;;;12.40;99.90;;;;;;5053977;28;20417;-67
2023/01/07 12:24:54;;;;;;;1.85;1.30;;;12.30;99.90;;;;;;5053254;28;20424;-66
2023/01/07 12:27:34;;;;;;;1.60;1.30;;;12.20;99.90;;;;;;5054683;28;20421;-66
2023/01/07 12:30:19;;;;;;;1.90;1.00;;;12.20;99.90;;;;;;5054148;28;20515;-66
2023/01/07 12:32:53;;;;;;;1.73;1.30;;;12.10;99.90;;;;;;5058045;28;20429;-65
2023/01/07 12:35:25;;;;;;;2.10;1.60;;;12.00;99.90;;;;;;5058109;28;20413;-65
2023/01/07 12:37:57;;;;;;;2.10;1.30;;;12.00;99.90;;;;;;5058467;28;20475;-66
2023/01/07 12:40:32;;;;;;;1.90;1.70;;;11.90;99.90;;;;;;5058135;28;20424;-67
2023/01/07 12:43:08;;;;;;;2.10;1.60;;;11.90;99.90;;;;;;5057151;28;20424;-67
2023/01/07 12:45:41;;;;;;;1.85;1.50;;;11.80;99.90;;;;;;5056679;28;20432;-67
2023/01/07 12:48:16;;;;;;;2.10;1.60;;;11.70;99.90;;;;;;5056852;28;20409;-66
2023/01/07 12:50:47;;;;;;;2.30;1.70;;;11.70;99.90;;;;;;5056779;28;20455;-65
2023/01/07 12:53:20;;;;;;;2.50;1.90;;;11.60;99.90;;;;;;5056735;28;20427;-67
2023/01/07 12:55:51;;;;;;;2.40;1.70;;;11.60;99.90;;;;;;5056495;28;20424;-66
2023/01/07 12:58:27;;;;;;;2.20;1.70;;;11.50;99.90;;;;;;5057274;28;20421;-66
2023/01/07 13:01:02;;;;;;;1.83;1.70;;;11.50;99.90;;;;;;5057070;28;20512;-65
2023/01/07 13:03:43;;;;;;;3.38;1.95;;;11.50;99.90;;;;;;5056703;28;20412;-65
2023/01/07 13:06:16;;;;;;;2.60;1.90;;;11.50;99.90;;;;;;5056424;28;20428;-66
2023/01/07 13:08:49;;;;;;;2.58;1.90;;;11.40;99.90;;;;;;5056484;28;20421;-66
2023/01/07 13:12:41;;;;;;;2.30;2.03;;;11.40;99.90;;;;;;5056911;28;20461;-67
2023/01/07 13:14:18;;;;;;;3.30;2.13;;;11.40;99.90;;;;;;5056459;28;20409;-67